createdAt,value
2018-02-10T00:00:23.407Z,35.30
2018-02-10T00:02:50.967Z,34.25
2018-02-10T00:05:19.316Z,34.00
2018-02-10T00:07:46.859Z,34.38
2018-02-10T00:10:14.435Z,36.45
2018-02-10T00:12:42.075Z,35.97
2018-02-10T00:15:09.652Z,36.40
2018-02-10T00:17:37.196Z,36.13
2018-02-10T00:20:04.782Z,52.45
2018-02-10T00:22:35.257Z,51.37
2018-02-10T00:25:02.881Z,51.00
2018-02-10T00:27:30.422Z,38.13
2018-02-10T00:29:58.001Z,36.30
2018-02-10T00:32:25.557Z,34.05
2018-02-10T00:34:53.135Z,33.15
2018-02-10T00:37:21.433Z,35.85
2018-02-10T00:39:49.023Z,33.45
2018-02-10T00:42:16.564Z,33.50
2018-02-10T00:44:44.144Z,34.65
2018-02-10T00:47:11.675Z,33.30
2018-02-10T00:49:39.267Z,34.83
2018-02-10T00:52:06.802Z,31.15
2018-02-10T00:54:34.377Z,33.55
2018-02-10T00:57:01.904Z,33.88
2018-02-10T00:59:30.248Z,32.33
2018-02-10T01:01:57.793Z,33.00
2018-02-10T01:04:25.375Z,32.15
2018-02-10T01:06:52.916Z,34.33
2018-02-10T01:09:20.496Z,32.10
2018-02-10T01:11:48.079Z,29.87
2018-02-10T01:14:16.429Z,31.20
2018-02-10T01:16:44.031Z,31.67
2018-02-10T01:19:11.612Z,30.60
2018-02-10T01:21:39.151Z,30.30
2018-02-10T01:24:06.741Z,30.70
2018-02-10T01:26:34.287Z,29.87
2018-02-10T01:29:01.865Z,30.30
2018-02-10T01:31:29.410Z,30.77
2018-02-10T01:33:56.983Z,32.70
2018-02-10T01:36:24.540Z,29.27
2018-02-10T01:38:52.126Z,31.10
2018-02-10T01:41:19.677Z,31.37
2018-02-10T01:43:47.250Z,29.83
2018-02-10T01:46:15.551Z,29.23
2018-02-10T01:48:43.898Z,31.23
2018-02-10T01:51:11.439Z,32.10
2018-02-10T01:53:39.011Z,31.00
2018-02-10T01:56:06.554Z,31.45
2018-02-10T01:58:34.130Z,31.33
2018-02-10T02:01:01.671Z,32.45
2018-02-10T02:03:29.289Z,30.92
2018-02-10T02:05:57.596Z,31.40
2018-02-10T02:08:25.191Z,34.05
2018-02-10T02:10:52.729Z,33.78
2018-02-10T02:13:20.302Z,32.30
2018-02-10T02:15:47.844Z,34.38
2018-02-10T02:18:15.440Z,31.65
2018-02-10T02:20:42.983Z,31.40
2018-02-10T02:23:10.561Z,32.22
2018-02-10T02:25:38.118Z,29.63
2018-02-10T02:28:05.704Z,31.52
2018-02-10T02:30:34.009Z,33.13
2018-02-10T02:33:01.604Z,35.13
2018-02-10T02:35:29.142Z,33.72
2018-02-10T02:37:56.722Z,35.25
2018-02-10T02:40:24.260Z,33.80
2018-02-10T02:42:51.873Z,32.10
2018-02-10T02:45:20.179Z,35.50
2018-02-10T02:47:47.760Z,33.50
2018-02-10T02:50:15.314Z,29.45
2018-02-10T02:52:42.890Z,32.28
2018-02-10T02:55:10.440Z,31.05
2018-02-10T02:57:38.017Z,34.90
2018-02-10T03:00:05.566Z,34.67
2018-02-10T03:02:33.149Z,32.92
2018-02-10T03:05:00.689Z,34.35
2018-02-10T03:07:28.455Z,36.28
2018-02-10T03:09:55.994Z,32.33
2018-02-10T03:12:24.495Z,31.35
2018-02-10T03:14:52.063Z,32.85
2018-02-10T03:17:19.599Z,33.10
2018-02-10T03:19:47.171Z,33.33
2018-02-10T03:22:14.699Z,31.27
2018-02-10T03:24:42.276Z,30.35
2018-02-10T03:27:09.816Z,30.98
2018-02-10T03:29:37.412Z,32.55
2018-02-10T03:32:04.949Z,33.38
2018-02-10T03:34:32.527Z,31.58
2018-02-10T03:37:00.072Z,33.58
2018-02-10T03:39:27.647Z,34.13
2018-02-10T03:41:55.187Z,32.22
2018-02-10T03:44:22.771Z,32.08
2018-02-10T03:46:50.311Z,32.60
2018-02-10T03:49:17.886Z,34.05
2018-02-10T03:51:45.423Z,33.55
2018-02-10T03:54:13.010Z,31.62
2018-02-10T03:56:40.546Z,32.20
2018-02-10T03:59:08.123Z,29.90
2018-02-10T04:01:35.665Z,33.42
2018-02-10T04:04:03.280Z,32.05
2018-02-10T04:06:31.584Z,32.80
2018-02-10T04:08:59.923Z,30.75
2018-02-10T04:11:27.461Z,29.98
2018-02-10T04:13:55.033Z,31.23
2018-02-10T04:16:22.575Z,32.40
2018-02-10T04:18:50.149Z,29.23
2018-02-10T04:21:17.692Z,32.05
2018-02-10T04:23:45.264Z,32.80
2018-02-10T04:26:12.812Z,32.15
2018-02-10T04:28:40.387Z,31.87
2018-02-10T04:31:07.937Z,32.58
2018-02-10T04:33:35.526Z,31.33
2018-02-10T04:36:03.988Z,29.52
2018-02-10T04:38:31.567Z,30.45
2018-02-10T04:40:59.097Z,31.60
2018-02-10T04:43:26.693Z,31.10
2018-02-10T04:45:54.237Z,31.70
2018-02-10T04:48:21.863Z,31.35
2018-02-10T04:50:49.407Z,30.80
2018-02-10T04:53:16.986Z,31.50
2018-02-10T04:55:44.519Z,30.62
2018-02-10T04:58:12.093Z,30.67
2018-02-10T05:00:39.645Z,30.35
2018-02-10T05:03:07.399Z,30.17
2018-02-10T05:05:34.940Z,29.77
2018-02-10T05:08:03.287Z,31.65
2018-02-10T05:10:30.827Z,29.60
2018-02-10T05:12:58.424Z,30.12
2018-02-10T05:15:26.734Z,30.20
2018-02-10T05:17:55.087Z,32.38
2018-02-10T05:20:22.628Z,31.15
2018-02-10T05:22:50.204Z,30.15
2018-02-10T05:25:18.520Z,29.45
2018-02-10T05:27:46.101Z,28.87
2018-02-10T05:30:13.638Z,28.80
2018-02-10T05:32:41.214Z,30.85
2018-02-10T05:35:08.772Z,28.48
2018-02-10T05:37:36.346Z,30.73
2018-02-10T05:40:03.876Z,30.92
2018-02-10T05:42:31.456Z,28.58
2018-02-10T05:44:59.001Z,27.80
2018-02-10T05:47:26.570Z,27.30
2018-02-10T05:49:54.109Z,27.37
2018-02-10T05:52:21.689Z,30.50
2018-02-10T05:54:49.220Z,27.77
2018-02-10T05:57:17.572Z,30.40
2018-02-10T05:59:45.111Z,28.92
2018-02-10T06:02:12.696Z,30.25
2018-02-10T06:04:40.245Z,30.27
2018-02-10T06:07:07.819Z,36.58
2018-02-10T06:09:35.359Z,33.35
2018-02-10T06:12:02.941Z,28.60
2018-02-10T06:14:31.259Z,31.67
2018-02-10T06:16:58.832Z,30.08
2018-02-10T06:19:26.366Z,29.20
2018-02-10T06:21:53.943Z,28.48
2018-02-10T06:24:21.483Z,28.90
2018-02-10T06:26:49.056Z,30.55
2018-02-10T06:29:16.601Z,30.02
2018-02-10T06:31:44.175Z,28.55
2018-02-10T06:34:11.751Z,30.85
2018-02-10T06:36:39.285Z,31.17
2018-02-10T06:39:06.863Z,28.20
2018-02-10T06:41:34.431Z,28.48
2018-02-10T06:44:02.025Z,28.87
2018-02-10T06:46:29.566Z,28.42
2018-02-10T06:48:57.202Z,27.95
2018-02-10T06:51:24.744Z,28.02
2018-02-10T06:53:52.329Z,28.02
2018-02-10T06:56:19.876Z,25.52
2018-02-10T06:58:47.541Z,30.60
2018-02-10T07:01:15.076Z,27.25
2018-02-10T07:03:42.650Z,28.58
2018-02-10T07:06:10.191Z,30.20
2018-02-10T07:08:38.536Z,26.45
2018-02-10T07:11:06.856Z,28.17
2018-02-10T07:13:34.472Z,29.27
2018-02-10T07:16:02.100Z,28.83
2018-02-10T07:18:29.717Z,28.73
2018-02-10T07:20:58.099Z,27.52
2018-02-10T07:23:26.448Z,27.90
2018-02-10T07:25:53.991Z,29.87
2018-02-10T07:28:21.593Z,28.38
2018-02-10T07:30:49.890Z,30.77
2018-02-10T07:33:17.462Z,29.98
2018-02-10T07:35:45.009Z,27.90
2018-02-10T07:38:12.590Z,29.27
2018-02-10T07:40:40.140Z,28.55
2018-02-10T07:43:07.720Z,30.92
2018-02-10T07:45:35.257Z,28.27
2018-02-10T07:48:02.830Z,27.60
2018-02-10T07:50:30.361Z,29.20
2018-02-10T07:52:58.754Z,27.98
2018-02-10T07:55:27.031Z,29.87
2018-02-10T07:57:54.608Z,29.85
2018-02-10T08:00:22.140Z,28.17
2018-02-10T08:02:50.479Z,30.42
2018-02-10T08:05:18.024Z,28.55
2018-02-10T08:07:45.613Z,30.40
2018-02-10T08:10:13.147Z,26.87
2018-02-10T08:12:40.725Z,28.38
2018-02-10T08:15:08.360Z,28.45
2018-02-10T08:17:35.955Z,28.48
2018-02-10T08:20:03.495Z,27.48
2018-02-10T08:22:31.030Z,27.92
2018-02-10T08:24:58.611Z,27.75
2018-02-10T08:27:26.189Z,27.98
2018-02-10T08:29:54.541Z,27.87
2018-02-10T08:32:22.076Z,28.50
2018-02-10T08:34:49.663Z,28.55
2018-02-10T08:37:17.967Z,27.05
2018-02-10T08:39:45.544Z,25.60
2018-02-10T08:42:13.851Z,29.65
2018-02-10T08:44:41.552Z,27.58
2018-02-10T08:47:09.336Z,27.45
2018-02-10T08:49:37.633Z,26.45
2018-02-10T08:52:05.178Z,26.00
2018-02-10T08:54:33.518Z,27.42
2018-02-10T08:57:01.054Z,26.30
2018-02-10T08:59:28.633Z,24.85
2018-02-10T09:01:56.174Z,23.80
2018-02-10T09:04:23.757Z,25.80
2018-02-10T09:06:51.291Z,27.13
2018-02-10T09:09:18.883Z,28.40
2018-02-10T09:11:46.422Z,27.55
2018-02-10T09:14:13.998Z,26.50
2018-02-10T09:16:41.534Z,24.55
2018-02-10T09:19:09.116Z,28.45
2018-02-10T09:21:36.653Z,26.40
2018-02-10T09:24:04.236Z,28.42
2018-02-10T09:26:31.836Z,26.17
2018-02-10T09:29:00.179Z,27.45
2018-02-10T09:31:27.712Z,27.50
2018-02-10T09:33:55.287Z,25.67
2018-02-10T09:36:22.817Z,24.15
2018-02-10T09:38:50.399Z,25.20
2018-02-10T09:41:17.936Z,25.77
2018-02-10T09:43:45.520Z,24.95
2018-02-10T09:46:13.050Z,24.80
2018-02-10T09:48:40.629Z,23.67
2018-02-10T09:51:08.183Z,25.08
2018-02-10T09:53:41.786Z,26.48
2018-02-10T09:56:09.318Z,24.95
2018-02-10T09:58:36.898Z,25.88
2018-02-10T10:01:04.437Z,26.95
2018-02-10T10:03:32.018Z,27.05
2018-02-10T10:05:59.555Z,24.98
2018-02-10T10:08:30.708Z,25.27
2018-02-10T10:10:58.242Z,25.73
2018-02-10T10:13:26.584Z,25.85
2018-02-10T10:15:54.132Z,22.90
2018-02-10T10:18:21.719Z,26.27
2018-02-10T10:20:49.264Z,26.17
2018-02-10T10:23:16.844Z,26.10
2018-02-10T10:25:44.378Z,28.42
2018-02-10T10:28:11.917Z,26.37
2018-02-10T10:30:39.498Z,27.52
2018-02-10T10:33:07.036Z,26.25
2018-02-10T10:35:34.618Z,24.98
2018-02-10T10:38:02.167Z,24.20
2018-02-10T10:40:29.747Z,26.35
2018-02-10T10:42:57.289Z,23.73
2018-02-10T10:45:24.868Z,26.30
2018-02-10T10:47:52.430Z,27.50
2018-02-10T10:50:20.022Z,25.23
2018-02-10T10:52:48.336Z,24.00
2018-02-10T10:55:15.911Z,24.70
2018-02-10T10:57:43.448Z,25.05
2018-02-10T11:00:11.031Z,24.00
2018-02-10T11:02:38.570Z,27.10
2018-02-10T11:05:06.148Z,23.40
2018-02-10T11:07:33.679Z,23.62
2018-02-10T11:10:01.254Z,25.30
2018-02-10T11:12:28.838Z,25.23
2018-02-10T11:14:56.434Z,25.58
2018-02-10T11:17:24.759Z,23.92
2018-02-10T11:19:52.338Z,24.87
2018-02-10T11:22:19.884Z,23.08
2018-02-10T11:24:47.487Z,24.15
2018-02-10T11:27:15.810Z,21.90
2018-02-10T11:29:43.407Z,21.80
2018-02-10T11:32:10.952Z,23.00
2018-02-10T11:34:38.523Z,21.65
2018-02-10T11:37:06.088Z,22.37
2018-02-10T11:39:34.457Z,21.33
2018-02-10T11:42:02.013Z,23.05
2018-02-10T11:44:29.605Z,19.37
2018-02-10T11:46:57.926Z,22.10
2018-02-10T11:49:25.560Z,22.48
2018-02-10T11:51:53.874Z,19.65
2018-02-10T11:54:21.458Z,18.15
2018-02-10T11:56:48.991Z,18.48
2018-02-10T11:59:16.573Z,17.80
2018-02-10T12:01:44.116Z,18.45
2018-02-10T12:04:11.708Z,18.55
2018-02-10T12:06:39.249Z,18.42
2018-02-10T12:09:06.838Z,18.83
2018-02-10T12:11:35.168Z,18.73
2018-02-10T12:14:03.033Z,16.80
2018-02-10T12:16:30.576Z,18.35
2018-02-10T12:18:58.214Z,20.42
2018-02-10T12:21:26.516Z,19.80
2018-02-10T12:23:54.187Z,18.87
2018-02-10T12:26:21.746Z,20.30
2018-02-10T12:28:49.328Z,19.12
2018-02-10T12:31:16.884Z,18.95
2018-02-10T12:33:44.588Z,19.30
2018-02-10T12:36:12.900Z,19.25
2018-02-10T12:38:40.569Z,19.85
2018-02-10T12:41:08.119Z,19.83
2018-02-10T12:43:35.699Z,19.60
2018-02-10T12:46:03.241Z,18.92
2018-02-10T12:48:36.537Z,19.62
2018-02-10T12:51:04.097Z,18.92
2018-02-10T12:53:31.677Z,20.33
2018-02-10T12:55:59.209Z,20.25
2018-02-10T12:58:26.787Z,21.37
2018-02-10T13:00:54.324Z,18.40
2018-02-10T13:03:21.900Z,18.73
2018-02-10T13:05:49.430Z,19.12
2018-02-10T13:08:17.775Z,19.40
2018-02-10T13:10:45.336Z,13.02
2018-02-10T13:13:12.928Z,20.27
2018-02-10T13:15:41.238Z,22.05
2018-02-10T13:18:08.827Z,19.33
2018-02-10T13:20:36.372Z,18.10
2018-02-10T13:23:03.968Z,18.70
2018-02-10T13:25:32.273Z,20.30
2018-02-10T13:27:59.855Z,20.23
2018-02-10T13:30:27.393Z,20.98
2018-02-10T13:32:54.972Z,20.67
2018-02-10T13:35:22.516Z,19.25
2018-02-10T13:37:50.101Z,20.48
2018-02-10T13:40:17.647Z,20.00
2018-02-10T13:42:45.225Z,22.23
2018-02-10T13:45:12.774Z,19.25
2018-02-10T13:47:40.377Z,18.33
2018-02-10T13:50:07.919Z,20.25
2018-02-10T13:52:35.550Z,18.15
2018-02-10T13:55:03.085Z,20.20
2018-02-10T13:57:30.676Z,20.40
2018-02-10T13:59:58.229Z,20.08
2018-02-10T14:02:25.804Z,20.65
2018-02-10T14:04:53.351Z,19.92
2018-02-10T14:07:20.932Z,18.52
2018-02-10T14:09:48.466Z,19.35
2018-02-10T14:12:16.066Z,19.67
2018-02-10T14:14:43.608Z,18.58
2018-02-10T14:17:11.257Z,20.80
2018-02-10T14:19:38.815Z,20.37
2018-02-10T14:22:06.401Z,21.75
2018-02-10T14:24:33.938Z,18.77
2018-02-10T14:27:01.520Z,17.40
2018-02-10T14:29:29.088Z,19.48
2018-02-10T14:31:56.686Z,17.42
2018-02-10T14:34:24.230Z,17.60
2018-02-10T14:36:52.574Z,17.67
2018-02-10T14:39:20.125Z,19.70
2018-02-10T14:41:48.514Z,18.42
2018-02-10T14:44:16.061Z,19.77
2018-02-10T14:46:43.597Z,20.02
2018-02-10T14:49:11.203Z,18.05
2018-02-10T14:51:38.793Z,17.92
2018-02-10T14:54:06.369Z,18.55
2018-02-10T14:56:33.916Z,18.95
2018-02-10T14:59:02.253Z,18.12
2018-02-10T15:01:29.789Z,18.73
2018-02-10T15:03:57.353Z,19.98
2018-02-10T15:06:24.890Z,18.42
2018-02-10T15:08:52.464Z,21.37
2018-02-10T15:11:20.006Z,19.08
2018-02-10T15:13:47.605Z,19.85
2018-02-10T15:16:15.153Z,20.70
2018-02-10T15:18:42.694Z,20.50
2018-02-10T15:21:10.279Z,19.77
2018-02-10T15:23:37.961Z,20.37
2018-02-10T15:26:05.535Z,20.85
2018-02-10T15:28:33.883Z,21.48
2018-02-10T15:31:14.048Z,20.35
2018-02-10T15:33:53.603Z,21.33
2018-02-10T15:36:21.140Z,20.65
2018-02-10T15:38:48.687Z,19.95
2018-02-10T15:41:16.265Z,22.20
2018-02-10T15:43:43.826Z,20.50
2018-02-10T15:46:11.420Z,21.55
2018-02-10T15:48:39.724Z,20.52
2018-02-10T15:51:07.278Z,23.10
2018-02-10T15:53:34.864Z,25.12
2018-02-10T15:56:02.510Z,20.55
2018-02-10T15:58:30.051Z,22.23
2018-02-10T16:00:57.640Z,20.65
2018-02-10T16:03:25.213Z,20.58
2018-02-10T16:05:52.756Z,21.52
2018-02-10T16:08:20.296Z,21.40
2018-02-10T16:10:48.455Z,21.30
2018-02-10T16:13:16.007Z,22.35
2018-02-10T16:15:44.342Z,21.95
2018-02-10T16:18:11.981Z,20.48
2018-02-10T16:20:39.588Z,22.30
2018-02-10T16:23:07.131Z,19.85
2018-02-10T16:25:34.706Z,20.98
2018-02-10T16:28:02.241Z,21.48
2018-02-10T16:30:29.834Z,20.33
2018-02-10T16:32:57.398Z,21.10
2018-02-10T16:35:25.696Z,22.25
2018-02-10T16:37:53.263Z,21.17
2018-02-10T16:40:20.800Z,22.73
2018-02-10T16:42:49.139Z,23.20
2018-02-10T16:45:16.777Z,22.80
2018-02-10T16:47:44.356Z,22.20
2018-02-10T16:50:11.895Z,22.60
2018-02-10T16:52:39.432Z,23.50
2018-02-10T16:55:07.003Z,23.50
2018-02-10T16:57:34.568Z,24.50
2018-02-10T17:00:02.147Z,22.90
2018-02-10T17:02:29.723Z,24.87
2018-02-10T17:04:57.271Z,23.77
2018-02-10T17:07:24.855Z,21.92
2018-02-10T17:09:52.390Z,23.65
2018-02-10T17:12:20.094Z,24.52
2018-02-10T17:14:48.432Z,25.48
2018-02-10T17:17:16.031Z,24.00
2018-02-10T17:19:43.571Z,24.05
2018-02-10T17:22:11.158Z,25.17
2018-02-10T17:24:39.454Z,25.45
2018-02-10T17:27:07.040Z,25.17
2018-02-10T17:29:34.598Z,25.55
2018-02-10T17:32:02.177Z,25.77
2018-02-10T17:34:29.708Z,25.23
2018-02-10T17:36:57.294Z,24.37
2018-02-10T17:39:24.854Z,25.90
2018-02-10T17:41:52.404Z,24.08
2018-02-10T17:44:19.994Z,24.63
2018-02-10T17:46:47.529Z,25.73
2018-02-10T17:49:15.119Z,25.50
2018-02-10T17:51:42.662Z,25.10
2018-02-10T17:54:10.244Z,24.80
2018-02-10T17:56:39.580Z,26.02
2018-02-10T17:59:07.171Z,27.37
2018-02-10T18:01:34.721Z,25.85
2018-02-10T18:04:02.246Z,26.20
2018-02-10T18:06:29.824Z,24.25
2018-02-10T18:08:57.359Z,26.48
2018-02-10T18:11:25.703Z,26.25
2018-02-10T18:13:53.235Z,26.67
2018-02-10T18:16:20.823Z,26.67
2018-02-10T18:18:48.360Z,27.58
2018-02-10T18:21:15.909Z,26.15
2018-02-10T18:23:44.320Z,29.20
2018-02-10T18:26:15.652Z,27.87
2018-02-10T18:28:44.251Z,28.00
2018-02-10T18:31:11.779Z,26.35
2018-02-10T18:33:39.311Z,28.95
2018-02-10T18:36:06.905Z,27.77
2018-02-10T18:38:34.461Z,27.62
2018-02-10T18:41:02.029Z,27.58
2018-02-10T18:43:29.619Z,28.62
2018-02-10T18:45:57.234Z,28.50
2018-02-10T18:48:24.818Z,31.08
2018-02-10T18:50:52.457Z,27.70
2018-02-10T18:53:20.005Z,27.17
2018-02-10T18:55:47.591Z,28.65
2018-02-10T18:58:15.135Z,26.73
2018-02-10T19:00:42.737Z,26.55
2018-02-10T19:03:10.319Z,26.85
2018-02-10T19:05:38.736Z,27.77
2018-02-10T19:08:06.398Z,26.70
2018-02-10T19:10:33.973Z,25.48
2018-02-10T19:13:01.622Z,27.55
2018-02-10T19:15:29.271Z,26.62
2018-02-10T19:17:56.839Z,24.77
2018-02-10T19:20:24.392Z,24.80
2018-02-10T19:22:51.994Z,24.40
2018-02-10T19:25:19.536Z,24.90
2018-02-10T19:27:47.124Z,23.50
2018-02-10T19:30:14.715Z,24.98
2018-02-10T19:32:42.271Z,24.48
2018-02-10T19:35:09.870Z,24.90
2018-02-10T19:37:37.552Z,20.35
2018-02-10T19:40:05.127Z,21.75
2018-02-10T19:42:33.427Z,19.83
2018-02-10T19:45:01.783Z,21.17
2018-02-10T19:47:29.334Z,23.02
2018-02-10T19:49:56.930Z,21.25
2018-02-10T19:52:25.237Z,18.05
2018-02-10T19:54:52.771Z,21.20
2018-02-10T19:57:20.365Z,21.67
2018-02-10T19:59:47.936Z,20.33
2018-02-10T20:02:15.679Z,19.20
2018-02-10T20:04:43.299Z,20.00
2018-02-10T20:07:11.650Z,19.40
2018-02-10T20:09:39.194Z,20.02
2018-02-10T20:12:06.762Z,17.90
2018-02-10T20:14:34.336Z,18.35
2018-02-10T20:17:01.875Z,18.10
2018-02-10T20:19:29.440Z,17.98
2018-02-10T20:21:56.976Z,17.60
2018-02-10T20:24:24.537Z,17.70
2018-02-10T20:26:52.159Z,18.50
2018-02-10T20:29:20.494Z,18.62
2018-02-10T20:31:48.041Z,17.52
2018-02-10T20:34:15.634Z,17.65
2018-02-10T20:36:43.188Z,17.90
2018-02-10T20:39:10.762Z,16.35
2018-02-10T20:41:38.347Z,15.88
2018-02-10T20:44:06.644Z,16.50
2018-02-10T20:46:34.189Z,17.85
2018-02-10T20:49:01.793Z,18.17
2018-02-10T20:51:29.328Z,16.42
2018-02-10T20:53:57.015Z,15.00
2018-02-10T20:56:24.551Z,16.55
2018-02-10T20:58:52.263Z,18.00
2018-02-10T21:01:19.782Z,16.00
2018-02-10T21:03:47.351Z,16.25
2018-02-10T21:06:14.919Z,16.95
2018-02-10T21:08:42.507Z,15.55
2018-02-10T21:11:10.814Z,16.10
2018-02-10T21:13:38.351Z,14.20
2018-02-10T21:16:06.702Z,15.30
2018-02-10T21:18:35.003Z,16.73
2018-02-10T21:21:03.309Z,15.25
2018-02-10T21:23:30.880Z,15.63
2018-02-10T21:25:58.456Z,14.60
2018-02-10T21:28:26.030Z,15.43
2018-02-10T21:30:53.575Z,14.55
2018-02-10T21:33:21.151Z,15.05
2018-02-10T21:35:48.708Z,14.15
2018-02-10T21:38:16.247Z,14.02
2018-02-10T21:40:43.828Z,14.10
2018-02-10T21:43:11.382Z,13.02
2018-02-10T21:45:38.967Z,15.02
2018-02-10T21:48:06.505Z,14.00
2018-02-10T21:50:34.104Z,14.55
2018-02-10T21:53:02.407Z,13.32
2018-02-10T21:55:29.959Z,14.23
2018-02-10T21:57:57.528Z,14.45
2018-02-10T22:00:25.073Z,14.52
2018-02-10T22:02:52.756Z,14.32
2018-02-10T22:05:20.299Z,14.23
2018-02-10T22:07:47.832Z,12.95
2018-02-10T22:10:16.174Z,13.43
2018-02-10T22:12:43.768Z,14.75
2018-02-10T22:15:11.341Z,12.07
2018-02-10T22:17:39.643Z,13.40
2018-02-10T22:20:07.230Z,13.90
2018-02-10T22:22:34.778Z,14.05
2018-02-10T22:25:02.323Z,13.55
2018-02-10T22:27:29.900Z,14.05
2018-02-10T22:29:57.431Z,13.50
2018-02-10T22:32:25.013Z,10.68
2018-02-10T22:34:52.584Z,13.70
2018-02-10T22:37:20.113Z,12.75
2018-02-10T22:39:47.710Z,14.80
2018-02-10T22:42:15.256Z,12.95
2018-02-10T22:44:42.791Z,12.85
2018-02-10T22:47:10.375Z,13.32
2018-02-10T22:49:37.910Z,12.57
2018-02-10T22:52:05.457Z,12.85
2018-02-10T22:54:33.796Z,13.82
2018-02-10T22:57:01.373Z,12.73
2018-02-10T22:59:28.917Z,13.48
2018-02-10T23:01:56.491Z,12.35
2018-02-10T23:04:24.038Z,12.95
2018-02-10T23:06:51.578Z,12.80
2018-02-10T23:09:19.159Z,13.00
2018-02-10T23:11:46.697Z,14.43
2018-02-10T23:14:14.256Z,13.48
2018-02-10T23:16:41.833Z,13.10
2018-02-10T23:19:09.398Z,13.43
2018-02-10T23:21:36.953Z,15.18
2018-02-10T23:24:04.530Z,12.60
2018-02-10T23:26:32.078Z,12.45
2018-02-10T23:28:59.662Z,11.98
2018-02-10T23:31:27.242Z,13.13
2018-02-10T23:33:54.783Z,13.10
2018-02-10T23:36:22.365Z,13.13
2018-02-10T23:38:49.936Z,11.27
2018-02-10T23:41:17.467Z,12.02
2018-02-10T23:43:45.791Z,12.23
2018-02-10T23:46:13.348Z,12.05
2018-02-10T23:48:40.924Z,12.25
2018-02-10T23:51:08.501Z,12.48
2018-02-10T23:53:36.030Z,11.65
2018-02-10T23:56:03.566Z,12.40
2018-02-10T23:58:31.140Z,12.52
